Aeroporto :
LOGIN :

Iscrizione | Disclaimer

   EN    FR    IT 

 










Sommario :    VFR   VFR Marginale   IFR   IFR Intensivo   IFR Molto Intensivo
Visibilità : 
Base nubi : 
>= 8 km
>= 3000ft
5 / 8 km
1000 / 3000 ft
1500m / 5 km
500 / 1000 ft
800 / 1500m
200 / 500 ft
< 800m
< 200 ft
Simboli :   Temporali  Nebbia  Neve Forte  Precipitazioni Forti  Vento > 20 kt
SIGMETs :   Varie  Temporali  Ghiacco  Turbolenza  Onda orograficha  Ceneri Vulcaniche






- Altitudine del aeroporto : 5600 ft
- Codice IATA : SMV


LSZS - Samedan

ULTIMO METAR :
  • 041320Z 03003KT 350V050 0500 SN VV003 M03/M03 Q0990 R/SNOCLO RMK N TL180

METARs OBSOLETI :
  • 041250Z VRB03KT 1000 SN OVC004 M03/M03 Q0990 R/SNOCLO RMK M TL180
  • 041220Z VRB02KT 1000 SN OVC004 M02/M03 Q0991 R/SNOCLO RMK L TL180
  • 041150Z 36003KT 310V070 1000 -SN OVC004 M03/M03 Q0991 R/SNOCLO RMK K TL180
  • 041120Z 05003KT 020V140 1000 -SN OVC014 M03/M04 Q0991 R/SNOCLO RMK J TL180
  • 041050Z 20013KT 170V250 1500 -SN OVC021 M02/M04 Q0992 R/SNOCLO RMK I TL180

TAF TAF LSZS
Valido dal 04 a 12 ore il 04 a 21 ore UTC


041125Z 0412/0421 18005KT 4000 -SN FEW009 BKN014 TXM01/0413Z
TEMPO 0412/0421 1200 SN VV005
PROB30 0412/0421 0500 +SN VV003
ATIS : +41 81 834 93 24



MetMap, La meteo Aeronautica in un colpo d'occhio ! - Copyright ORBIFLY Dicembre 2007 - Disclaimer

ORBIFLY MET'MAP TEAM :

Programmazione e sviluppo : Alexandra Zaïnal
Concezione : Baudouin d'Aumeries
Aiuto per la programmazione : Marc-Olivier Méhu
Supporto tecnico e logistico : Manuel Goepfert
Aiuto per la traduzione : Arnaldo La Scala

Contatto : metmap@orbifly.com




FONTI E CREDITI :

   NOAA